Time;durP1;ratioP1;P1;durP2;ratioP2;P2;SDS_P1;SDS_P2;PMS_P1;PMS_P2;Temp;Humidity;BMP_temperature;BMP_pressure;BME280_temperature;BME280_humidity;BME280_pressure;Samples;Min_cycle;Max_cycle;Signal;HPM_P1;HPM_P2
2023/07/07 00:02:26;;;;;;;2.07;1.60;;;;;;;15.18;72.49;101250.44;4962360;28;20243;-71
2023/07/07 00:04:52;;;;;;;2.47;1.77;;;;;;;15.10;72.69;101258.19;4961514;28;20209;-70
2023/07/07 00:07:20;;;;;;;2.77;2.10;;;;;;;15.04;72.55;101255.97;4960645;28;20201;-71
2023/07/07 00:09:47;;;;;;;2.77;1.53;;;;;;;14.96;72.73;101250.28;4963851;28;20319;-71
2023/07/07 00:12:16;;;;;;;2.20;1.80;;;;;;;14.89;72.60;101252.53;4963444;28;20233;-70
2023/07/07 00:14:42;;;;;;;2.30;1.67;;;;;;;14.84;73.35;101253.84;4964648;28;20566;-71
2023/07/07 00:17:09;;;;;;;2.10;1.80;;;;;;;14.83;73.41;101257.50;4961450;28;20231;-69
2023/07/07 00:19:36;;;;;;;8.10;2.33;;;;;;;14.81;73.32;101256.75;4959976;28;20705;-71
2023/07/07 00:22:06;;;;;;;2.70;1.70;;;;;;;14.77;72.84;101258.78;4963933;28;20274;-70
2023/07/07 00:24:33;;;;;;;2.47;1.77;;;;;;;14.68;72.52;101269.31;4968068;28;20201;-70
2023/07/07 00:26:59;;;;;;;4.27;2.00;;;;;;;14.59;72.77;101269.00;4960882;28;20212;-71
2023/07/07 00:29:27;;;;;;;2.47;1.93;;;;;;;14.54;73.54;101270.28;4955095;28;20682;-71
2023/07/07 00:31:54;;;;;;;2.80;1.97;;;;;;;14.52;74.21;101273.06;4969381;28;20228;-70
2023/07/07 00:34:20;;;;;;;4.07;2.33;;;;;;;14.50;74.50;101277.69;4962471;28;20209;-70
2023/07/07 00:36:47;;;;;;;2.13;1.93;;;;;;;14.48;74.50;101276.09;4963490;28;20229;-71
2023/07/07 00:39:13;;;;;;;4.50;2.20;;;;;;;14.46;75.77;101273.50;4966019;28;20205;-70
2023/07/07 00:41:40;;;;;;;2.70;2.07;;;;;;;14.44;75.81;101286.16;4961390;28;20232;-71
2023/07/07 00:44:09;;;;;;;4.73;2.77;;;;;;;14.44;76.56;101280.78;4965239;28;20689;-70
2023/07/07 00:46:38;;;;;;;4.03;2.43;;;;;;;14.44;76.93;101283.47;4963913;28;20204;-70
2023/07/07 00:49:11;;;;;;;4.13;1.97;;;;;;;14.44;77.29;101277.25;4965782;28;20212;-71
2023/07/07 00:51:41;;;;;;;3.97;2.53;;;;;;;14.43;77.45;101281.75;4963104;28;20228;-71
2023/07/07 00:54:15;;;;;;;3.87;2.40;;;;;;;14.41;77.46;101269.41;4961380;28;20208;-70
2023/07/07 00:56:45;;;;;;;3.27;2.17;;;;;;;14.38;77.63;101274.94;4967078;28;20227;-70
2023/07/07 00:59:16;;;;;;;4.70;2.60;;;;;;;14.34;77.99;101268.09;4966361;28;20216;-70
2023/07/07 01:01:44;;;;;;;3.03;2.30;;;;;;;14.30;77.65;101275.50;4964687;28;20251;-71
2023/07/07 01:04:17;;;;;;;4.47;2.37;;;;;;;14.25;77.77;101270.44;4965597;28;20662;-71
2023/07/07 01:06:49;;;;;;;5.53;2.40;;;;;;;14.20;78.14;101274.41;4955180;28;20196;-70
2023/07/07 01:09:16;;;;;;;4.03;2.73;;;;;;;14.12;77.81;101276.75;4957818;28;20215;-70
2023/07/07 01:11:42;;;;;;;4.33;2.27;;;;;;;14.06;77.64;101280.69;4955917;28;20233;-71
2023/07/07 01:14:14;;;;;;;3.77;2.10;;;;;;;14.00;77.84;101280.25;4952128;28;20205;-71
2023/07/07 01:16:58;;;;;;;2.33;1.90;;;;;;;13.93;77.94;101284.31;4961525;28;20240;-70
2023/07/07 01:20:04;;;;;;;5.00;2.73;;;;;;;13.88;79.04;101285.47;4961600;28;20211;-70
2023/07/07 01:22:57;;;;;;;4.43;2.67;;;;;;;13.88;79.73;101276.59;4963442;28;20365;-71
2023/07/07 01:25:30;;;;;;;4.37;2.33;;;;;;;13.89;80.10;101278.31;4956543;28;20701;-71
2023/07/07 01:28:14;;;;;;;3.97;2.33;;;;;;;13.90;80.42;101283.56;4962429;28;20204;-70
2023/07/07 01:30:47;;;;;;;3.23;2.93;;;;;;;13.93;80.58;101273.59;4964895;28;20292;-71
2023/07/07 01:33:17;;;;;;;4.97;2.40;;;;;;;13.95;80.72;101285.09;4956538;28;20204;-71
2023/07/07 01:35:44;;;;;;;3.70;2.00;;;;;;;13.95;80.56;101280.59;4963905;28;20208;-70
2023/07/07 01:38:31;;;;;;;3.13;2.27;;;;;;;13.96;80.23;101279.63;4965556;28;20224;-70
2023/07/07 01:41:03;;;;;;;3.00;2.30;;;;;;;13.96;80.19;101289.47;4959632;28;20329;-70
2023/07/07 01:43:36;;;;;;;5.47;2.33;;;;;;;13.95;80.28;101277.91;4960874;28;20213;-70
2023/07/07 01:46:10;;;;;;;3.37;2.03;;;;;;;13.93;80.17;101285.19;4959099;28;20208;-71
2023/07/07 01:48:42;;;;;;;3.10;2.40;;;;;;;13.91;80.33;101279.06;4960556;28;20200;-71
2023/07/07 01:51:12;;;;;;;2.77;2.23;;;;;;;13.86;79.47;101283.84;4965634;28;20228;-70
2023/07/07 01:53:40;;;;;;;5.27;2.20;;;;;;;13.78;79.61;101286.22;4964567;28;20219;-69
2023/07/07 01:56:08;;;;;;;4.60;2.23;;;;;;;13.68;79.76;101283.28;4964653;28;20220;-70
2023/07/07 01:58:36;;;;;;;3.90;2.37;;;;;;;13.60;79.71;101282.94;4958013;28;20236;-71
2023/07/07 02:01:05;;;;;;;3.97;2.20;;;;;;;13.55;80.04;101283.22;4964991;28;20840;-71
2023/07/07 02:03:31;;;;;;;3.63;2.30;;;;;;;13.51;80.49;101283.53;4956390;28;20201;-71
2023/07/07 02:05:57;;;;;;;3.50;2.37;;;;;;;13.50;81.03;101281.81;4952757;28;20212;-70
2023/07/07 02:08:24;;;;;;;2.93;2.00;;;;;;;13.49;81.56;101282.75;4955477;28;20709;-71
2023/07/07 02:10:50;;;;;;;2.90;2.23;;;;;;;13.49;81.56;101282.75;4966460;28;20633;-71
2023/07/07 02:13:17;;;;;;;2.87;2.27;;;;;;;13.49;81.53;101282.75;4966197;28;20210;-70
2023/07/07 02:15:43;;;;;;;2.93;2.30;;;;;;;13.47;81.54;101280.19;4957835;28;20205;-71
2023/07/07 02:18:11;;;;;;;2.43;2.23;;;;;;;13.45;81.59;101279.41;4956879;28;20232;-71
2023/07/07 02:20:37;;;;;;;7.80;2.50;;;;;;;13.45;81.97;101278.56;4964549;28;20213;-71
2023/07/07 02:23:04;;;;;;;4.00;1.90;;;;;;;13.41;81.63;101279.75;4962080;28;20217;-70
2023/07/07 02:25:30;;;;;;;2.73;2.20;;;;;;;13.34;81.39;101283.75;4965233;28;20215;-71
2023/07/07 02:27:57;;;;;;;2.70;2.30;;;;;;;13.30;82.10;101276.88;4956960;28;20205;-71
2023/07/07 02:30:23;;;;;;;3.67;2.23;;;;;;;13.29;82.54;101275.16;4965642;28;20219;-71
2023/07/07 02:32:50;;;;;;;2.40;2.17;;;;;;;13.29;82.54;101280.50;4961979;28;20253;-70
2023/07/07 02:35:18;;;;;;;3.93;2.43;;;;;;;13.29;82.61;101281.38;4965542;28;20645;-70
2023/07/07 02:37:45;;;;;;;2.63;2.07;;;;;;;13.29;82.81;101283.19;4968144;28;20219;-71
2023/07/07 02:40:12;;;;;;;2.77;2.57;;;;;;;13.30;82.92;101279.56;4966745;28;20209;-70
2023/07/07 02:42:38;;;;;;;3.50;2.57;;;;;;;13.30;83.26;101284.91;4960526;28;20513;-71
2023/07/07 02:45:05;;;;;;;5.03;2.40;;;;;;;13.29;83.23;101293.88;4957273;28;20225;-71
2023/07/07 02:47:32;;;;;;;4.87;2.87;;;;;;;13.28;83.18;101281.47;4960667;28;20587;-70
2023/07/07 02:49:58;;;;;;;3.67;2.80;;;;;;;13.28;83.10;101287.69;4966855;28;20208;-71
2023/07/07 02:52:28;;;;;;;5.20;2.73;;;;;;;13.28;82.70;101286.81;4969695;28;20239;-70
2023/07/07 02:54:54;;;;;;;4.73;2.40;;;;;;;13.26;82.65;101280.72;4967818;28;20675;-70
2023/07/07 02:57:21;;;;;;;2.87;2.20;;;;;;;13.25;82.45;101281.69;4958119;28;20763;-71
2023/07/07 02:59:47;;;;;;;2.97;1.80;;;;;;;13.21;81.90;101289.06;4966060;28;20220;-71
2023/07/07 03:02:14;;;;;;;3.03;2.23;;;;;;;13.16;81.00;101283.13;4965342;28;20244;-71
2023/07/07 03:04:40;;;;;;;3.10;2.37;;;;;;;13.11;81.37;101287.88;4967692;28;20211;-70
2023/07/07 03:07:07;;;;;;;3.03;2.73;;;;;;;13.10;81.58;101280.81;4965355;28;20216;-70
2023/07/07 03:09:35;;;;;;;6.20;3.00;;;;;;;13.09;82.27;101292.47;4962717;28;20205;-70
2023/07/07 03:12:01;;;;;;;5.20;2.77;;;;;;;13.07;82.48;101292.59;4962011;28;20228;-71
2023/07/07 03:14:27;;;;;;;4.07;3.20;;;;;;;13.07;82.87;101289.06;4963075;28;20208;-71
2023/07/07 03:16:57;;;;;;;2.87;2.63;;;;;;;13.06;83.17;101296.22;4970408;28;20208;-70
2023/07/07 03:19:23;;;;;;;3.40;2.83;;;;;;;13.04;83.25;101298.13;4957267;28;20211;-71
2023/07/07 03:21:49;;;;;;;7.07;3.13;;;;;;;13.02;83.42;101293.81;4964014;28;20231;-71
2023/07/07 03:24:16;;;;;;;4.63;2.80;;;;;;;13.01;83.71;101303.66;4960648;28;20213;-70
2023/07/07 03:26:44;;;;;;;5.50;2.60;;;;;;;12.99;83.89;101292.19;4971331;28;20608;-71
2023/07/07 03:29:11;;;;;;;2.77;2.53;;;;;;;12.95;83.83;101300.50;4957359;28;20227;-70
2023/07/07 03:31:38;;;;;;;3.43;2.97;;;;;;;12.89;83.63;101300.91;4963069;28;20232;-70
2023/07/07 03:34:07;;;;;;;2.90;2.37;;;;;;;12.83;83.88;101310.16;4965770;28;20228;-71
2023/07/07 03:36:35;;;;;;;2.43;2.20;;;;;;;12.75;83.56;101307.94;4964478;28;20200;-71
2023/07/07 03:39:02;;;;;;;3.20;2.60;;;;;;;12.69;83.62;101305.66;4963303;28;20233;-70
2023/07/07 03:41:30;;;;;;;4.57;2.53;;;;;;;12.65;83.99;101312.16;4957129;28;20229;-70
2023/07/07 03:43:58;;;;;;;4.40;2.60;;;;;;;12.62;84.19;101316.81;4960808;28;20231;-71
2023/07/07 03:46:27;;;;;;;6.07;3.47;;;;;;;12.61;84.58;101315.97;4954235;28;20265;-71
2023/07/07 03:48:54;;;;;;;4.80;2.93;;;;;;;12.60;85.04;101310.72;4957800;28;20208;-71
2023/07/07 03:51:23;;;;;;;3.13;2.50;;;;;;;12.60;84.89;101316.03;4965307;28;20587;-71
2023/07/07 03:53:50;;;;;;;3.77;2.90;;;;;;;12.56;84.79;101315.38;4967778;28;20214;-70
2023/07/07 03:56:18;;;;;;;6.97;3.13;;;;;;;12.54;84.74;101321.78;4961955;28;20240;-69
2023/07/07 03:58:44;;;;;;;7.07;3.13;;;;;;;12.50;85.37;101319.28;4967327;28;20729;-70
2023/07/07 04:01:13;;;;;;;5.57;3.33;;;;;;;12.48;85.41;101329.22;4962094;28;20276;-70
2023/07/07 04:03:40;;;;;;;3.57;2.67;;;;;;;12.49;85.99;101325.59;4959459;28;20211;-70
2023/07/07 04:06:07;;;;;;;5.50;2.90;;;;;;;12.51;86.18;101329.03;4966612;28;20216;-70
2023/07/07 04:08:33;;;;;;;6.70;2.47;;;;;;;12.48;85.69;101326.53;4958512;28;20212;-71
2023/07/07 04:11:01;;;;;;;4.77;2.90;;;;;;;12.44;86.29;101326.81;4964705;28;20235;-71
2023/07/07 04:13:28;;;;;;;4.60;3.00;;;;;;;12.43;86.63;101319.75;4961711;28;20304;-71
2023/07/07 04:15:59;;;;;;;4.57;2.70;;;;;;;12.41;86.87;101330.53;4965715;28;20211;-71
2023/07/07 04:18:26;;;;;;;4.27;3.00;;;;;;;12.42;87.54;101334.91;4966054;28;20231;-69
2023/07/07 04:20:53;;;;;;;4.90;3.07;;;;;;;12.46;87.94;101335.59;4964379;28;20228;-70
2023/07/07 04:23:19;;;;;;;3.60;3.10;;;;;;;12.47;87.78;101335.50;4959583;28;20235;-70
2023/07/07 04:25:46;;;;;;;7.57;2.87;;;;;;;12.47;87.79;101340.84;4966250;28;20605;-70
2023/07/07 04:28:13;;;;;;;4.20;2.93;;;;;;;12.47;88.16;101345.34;4965099;28;20204;-70
2023/07/07 04:30:39;;;;;;;4.30;3.20;;;;;;;12.44;88.40;101341.03;4966331;28;20212;-70
2023/07/07 04:33:05;;;;;;;8.47;3.40;;;;;;;12.44;89.17;101340.16;4966072;28;20685;-70
2023/07/07 04:35:37;;;;;;;3.80;3.40;;;;;;;12.45;89.57;101344.56;4963386;28;20207;-70
2023/07/07 04:38:04;;;;;;;6.60;3.37;;;;;;;12.45;90.15;101349.91;4967171;28;20239;-70
2023/07/07 04:40:31;;;;;;;4.10;3.33;;;;;;;12.46;90.74;101355.16;4961428;28;20215;-70
2023/07/07 04:42:57;;;;;;;6.97;3.40;;;;;;;12.49;91.70;101351.44;4965662;28;20892;-70
2023/07/07 04:45:24;;;;;;;4.17;3.43;;;;;;;12.51;92.13;101355.75;4966875;28;20214;-70
2023/07/07 04:47:50;;;;;;;4.90;3.33;;;;;;;12.55;92.36;101353.72;4963633;28;20208;-71
2023/07/07 04:50:17;;;;;;;5.17;3.47;;;;;;;12.61;92.78;101349.84;4965811;28;20245;-71
2023/07/07 04:52:45;;;;;;;7.20;3.47;;;;;;;12.64;92.71;101350.53;4965809;28;20601;-71
2023/07/07 04:55:12;;;;;;;6.20;3.93;;;;;;;12.70;93.16;101358.19;4959480;28;20208;-71
2023/07/07 04:57:39;;;;;;;6.90;3.93;;;;;;;12.77;93.69;101356.81;4961990;28;20213;-70
2023/07/07 05:00:08;;;;;;;4.70;4.13;;;;;;;12.86;94.50;101366.09;4955854;28;20600;-72
2023/07/07 05:02:35;;;;;;;5.27;4.13;;;;;;;12.92;94.51;101363.03;4958940;28;20740;-69
2023/07/07 05:05:02;;;;;;;4.07;3.63;;;;;;;12.98;94.87;101353.78;4969742;28;20212;-67
2023/07/07 05:07:30;;;;;;;3.90;3.50;;;;;;;13.03;95.23;101357.91;4965704;28;20208;-71
2023/07/07 05:09:57;;;;;;;4.17;3.30;;;;;;;13.08;95.85;101363.81;4963895;28;20216;-71
2023/07/07 05:12:24;;;;;;;5.40;3.97;;;;;;;13.14;95.68;101360.75;4964256;28;20248;-70
2023/07/07 05:14:52;;;;;;;5.07;2.90;;;;;;;13.18;95.72;101365.00;4963870;28;20211;-72
2023/07/07 05:17:18;;;;;;;3.93;2.43;;;;;;;13.23;95.52;101361.19;4964559;28;20209;-70
2023/07/07 05:19:45;;;;;;;3.53;2.20;;;;;;;13.25;94.39;101362.81;4965295;28;20618;-72
2023/07/07 05:22:11;;;;;;;6.13;2.33;;;;;;;13.29;93.63;101358.09;4958308;28;20590;-70
2023/07/07 05:24:38;;;;;;;3.87;2.40;;;;;;;13.36;93.05;101357.63;4964858;28;20215;-70
2023/07/07 05:27:06;;;;;;;3.50;2.30;;;;;;;13.45;92.84;101359.69;4958033;28;20217;-71
2023/07/07 05:29:33;;;;;;;5.30;2.90;;;;;;;13.55;92.60;101360.84;4966198;28;20205;-70
2023/07/07 05:31:59;;;;;;;4.97;2.73;;;;;;;13.66;92.26;101361.94;4964594;28;20243;-71
2023/07/07 05:34:26;;;;;;;3.83;2.80;;;;;;;13.79;92.27;101366.41;4959210;28;20222;-71
2023/07/07 05:36:52;;;;;;;5.73;3.57;;;;;;;13.91;91.69;101367.44;4963757;28;20211;-71
2023/07/07 05:39:18;;;;;;;7.73;3.67;;;;;;;14.04;91.32;101367.47;4964123;28;20240;-70
2023/07/07 05:41:45;;;;;;;7.03;3.80;;;;;;;14.19;91.04;101369.13;4963652;28;20235;-70
2023/07/07 05:44:13;;;;;;;7.97;4.00;;;;;;;14.36;90.94;101366.16;4964920;28;20226;-70
2023/07/07 05:46:39;;;;;;;6.70;3.90;;;;;;;14.53;90.60;101365.91;4966311;28;20216;-70
2023/07/07 05:49:06;;;;;;;13.10;4.63;;;;;;;14.70;89.85;101370.09;4962792;28;20300;-70
2023/07/07 05:51:32;;;;;;;8.50;4.00;;;;;;;14.88;88.48;101373.34;4966157;28;20228;-70
2023/07/07 05:53:58;;;;;;;6.97;4.00;;;;;;;15.07;87.48;101371.06;4964278;28;20212;-70
2023/07/07 05:56:26;;;;;;;10.63;4.00;;;;;;;15.27;86.54;101364.28;4958400;28;20211;-70
2023/07/07 05:58:54;;;;;;;5.53;3.80;;;;;;;15.50;86.02;101370.69;4966009;28;20233;-70
2023/07/07 06:01:23;;;;;;;6.87;3.80;;;;;;;15.75;85.55;101380.56;4964856;28;20241;-70
2023/07/07 06:03:49;;;;;;;7.00;3.20;;;;;;;15.98;84.22;101369.81;4955956;28;20219;-71
2023/07/07 06:06:16;;;;;;;7.40;3.30;;;;;;;16.23;83.42;101378.72;4965157;28;20211;-69
2023/07/07 06:08:43;;;;;;;8.27;3.30;;;;;;;16.47;81.60;101376.88;4969087;28;20231;-71
2023/07/07 06:11:10;;;;;;;9.47;4.03;;;;;;;16.69;79.65;101375.22;4965137;28;20238;-72
2023/07/07 06:13:36;;;;;;;6.73;3.50;;;;;;;16.89;78.81;101369.16;4961581;28;20208;-71
2023/07/07 06:16:03;;;;;;;4.23;2.93;;;;;;;17.09;77.20;101378.34;4962284;28;20212;-72
2023/07/07 06:18:31;;;;;;;5.60;3.30;;;;;;;17.30;76.46;101377.50;4964334;28;20228;-71
2023/07/07 06:20:59;;;;;;;5.80;3.17;;;;;;;17.54;75.01;101376.53;4961988;28;20244;-71
2023/07/07 06:23:27;;;;;;;5.77;3.10;;;;;;;17.74;73.45;101378.47;4959616;28;20718;-73
2023/07/07 06:25:53;;;;;;;6.30;2.83;;;;;;;17.94;72.20;101390.31;4964922;28;20706;-70
2023/07/07 06:28:20;;;;;;;4.30;2.73;;;;;;;18.12;71.33;101386.09;4965999;28;20213;-73
2023/07/07 06:30:48;;;;;;;7.60;2.90;;;;;;;18.31;69.56;101385.41;4963970;28;20825;-74
2023/07/07 06:33:14;;;;;;;7.90;3.50;;;;;;;18.48;68.39;101386.66;4959605;28;20787;-74
2023/07/07 06:35:43;;;;;;;5.43;2.93;;;;;;;18.63;68.02;101385.41;4958086;28;20206;-73
2023/07/07 06:38:10;;;;;;;7.00;3.30;;;;;;;18.75;67.52;101389.75;4960456;28;20305;-73
2023/07/07 06:40:36;;;;;;;7.00;2.90;;;;;;;18.86;66.60;101389.66;4955627;28;21496;-73
2023/07/07 06:43:03;;;;;;;5.93;2.67;;;;;;;19.02;66.34;101389.19;4960361;28;20259;-73
2023/07/07 06:45:31;;;;;;;9.30;3.10;;;;;;;19.18;65.86;101386.88;4957564;28;20443;-73
2023/07/07 06:47:57;;;;;;;7.47;2.53;;;;;;;19.34;64.66;101398.06;4964505;28;20218;-73
2023/07/07 06:50:28;;;;;;;4.33;2.33;;;;;;;19.50;64.26;101400.28;4960233;28;20207;-73
2023/07/07 06:52:56;;;;;;;3.30;2.57;;;;;;;19.65;63.65;101396.19;4960382;28;20238;-73
2023/07/07 06:55:23;;;;;;;6.13;2.93;;;;;;;19.83;63.33;101395.53;4963770;28;20213;-74
2023/07/07 06:57:50;;;;;;;4.90;2.43;;;;;;;19.95;62.31;101389.88;4958313;28;20214;-73
2023/07/07 07:00:18;;;;;;;3.83;2.70;;;;;;;20.11;62.15;101389.31;4965349;28;20234;-73
2023/07/07 07:02:45;;;;;;;5.47;2.70;;;;;;;20.31;61.30;101396.44;4963138;28;20238;-74
2023/07/07 07:05:12;;;;;;;5.93;2.67;;;;;;;20.49;60.67;101390.34;4968787;28;20210;-74
2023/07/07 07:07:38;;;;;;;4.32;2.67;;;;;;;20.67;60.64;101388.63;4963527;28;20222;-73
2023/07/07 07:10:07;;;;;;;4.88;2.33;;;;;;;20.86;59.57;101387.75;4957643;28;20211;-74
2023/07/07 07:12:34;;;;;;;2.55;1.90;;;;;;;21.04;59.36;101391.41;4957488;28;20241;-73
2023/07/07 07:15:00;;;;;;;5.22;2.53;;;;;;;21.27;59.01;101389.22;4954600;28;20227;-74
2023/07/07 07:17:27;;;;;;;5.18;2.25;;;;;;;21.47;58.66;101385.44;4957101;28;20208;-73
2023/07/07 07:19:54;;;;;;;4.55;2.45;;;;;;;21.66;58.59;101381.78;4956219;28;20228;-73
2023/07/07 07:22:20;;;;;;;3.10;2.25;;;;;;;21.86;58.58;101383.34;4950444;28;21697;-72
2023/07/07 07:24:47;;;;;;;5.53;2.15;;;;;;;22.03;57.06;101388.00;4967941;28;20215;-72
2023/07/07 07:27:15;;;;;;;3.30;2.30;;;;;;;22.15;55.94;101378.63;4962934;28;20219;-73
2023/07/07 07:29:43;;;;;;;3.50;1.90;;;;;;;22.27;55.37;101372.97;4963109;28;20634;-72
2023/07/07 07:32:10;;;;;;;3.30;2.03;;;;;;;22.40;55.18;101368.84;4961618;28;20259;-73
2023/07/07 07:34:36;;;;;;;3.25;1.70;;;;;;;22.52;54.24;101373.03;4961963;28;20310;-73
2023/07/07 07:37:04;;;;;;;4.78;1.95;;;;;;;22.66;53.70;101371.59;4965723;28;20305;-73
2023/07/07 07:39:31;;;;;;;2.17;1.80;;;;;;;22.77;53.02;101365.94;4968184;28;20258;-72
2023/07/07 07:41:57;;;;;;;4.72;2.13;;;;;;;22.93;52.94;101367.09;4961036;28;20251;-73
2023/07/07 07:44:26;;;;;;;2.95;1.85;;;;;;;23.13;52.50;101373.97;4969085;28;20218;-73
2023/07/07 07:46:55;;;;;;;3.97;1.67;;;;;;;23.31;50.74;101368.47;4969941;28;20674;-73
2023/07/07 07:49:22;;;;;;;4.70;1.88;;;;;;;23.43;48.85;101367.19;4965743;28;20207;-73
2023/07/07 07:51:48;;;;;;;3.15;1.60;;;;;;;23.61;48.27;101367.13;4967233;28;20302;-73
2023/07/07 07:54:18;;;;;;;4.10;1.60;;;;;;;23.75;47.71;101366.50;4958814;28;20460;-73
2023/07/07 07:56:45;;;;;;;1.92;1.38;;;;;;;23.89;47.13;101371.28;4968008;28;20760;-73
2023/07/07 07:59:12;;;;;;;3.05;1.48;;;;;;;24.00;46.20;101370.13;4970430;28;20685;-74
2023/07/07 08:01:39;;;;;;;1.60;1.40;;;;;;;24.13;46.19;101370.50;4967557;28;20232;-73
2023/07/07 08:04:07;;;;;;;2.28;1.50;;;;;;;24.29;45.73;101369.69;4964804;28;20215;-73
2023/07/07 08:06:34;;;;;;;2.22;1.45;;;;;;;24.45;45.26;101380.59;4960620;28;20204;-73
2023/07/07 08:09:01;;;;;;;2.90;1.63;;;;;;;24.59;44.69;101377.19;4969306;28;20208;-72
2023/07/07 08:11:56;;;;;;;2.55;1.63;;;;;;;24.78;44.37;101374.09;4968318;28;20235;-73
2023/07/07 08:14:30;;;;;;;1.90;1.40;;;;;;;24.90;42.96;101370.00;4966493;28;20216;-72
2023/07/07 08:17:04;;;;;;;1.77;1.42;;;;;;;25.04;42.48;101362.19;4963619;28;20591;-74
2023/07/07 08:19:34;;;;;;;2.40;1.38;;;;;;;25.18;42.58;101370.47;4958628;28;20232;-73
2023/07/07 08:22:01;;;;;;;5.50;1.70;;;;;;;25.34;41.73;101366.00;4968467;28;20228;-72
2023/07/07 08:24:28;;;;;;;2.35;1.45;;;;;;;25.50;41.39;101364.06;4960587;28;20212;-73
2023/07/07 08:26:54;;;;;;;3.03;1.60;;;;;;;25.66;41.52;101357.72;4959890;28;20215;-73
2023/07/07 08:29:21;;;;;;;2.38;1.50;;;;;;;25.79;42.38;101366.19;4968641;28;20200;-74
2023/07/07 08:31:47;;;;;;;2.22;1.48;;;;;;;25.93;42.41;101364.56;4962655;28;20228;-73
2023/07/07 08:34:16;;;;;;;4.03;1.92;;;;;;;26.07;42.02;101355.59;4969640;28;20208;-73
2023/07/07 08:36:42;;;;;;;2.95;1.60;;;;;;;26.16;41.50;101357.22;4957169;28;20205;-73
2023/07/07 08:39:11;;;;;;;1.83;1.63;;;;;;;26.30;40.82;101355.63;4969077;28;20219;-73
2023/07/07 08:41:41;;;;;;;3.03;1.67;;;;;;;26.47;40.83;101362.66;4958827;28;20229;-74
2023/07/07 08:44:12;;;;;;;1.90;1.38;;;;;;;26.62;39.65;101360.81;4958802;28;20207;-73
2023/07/07 08:46:52;;;;;;;2.50;1.55;;;;;;;26.73;38.60;101366.88;4969423;28;20212;-73
2023/07/07 08:49:26;;;;;;;2.03;1.58;;;;;;;26.83;38.06;101362.84;4965436;28;20262;-73
2023/07/07 08:52:01;;;;;;;2.25;1.50;;;;;;;26.93;37.82;101360.69;4965386;28;20234;-73
2023/07/07 08:54:34;;;;;;;2.55;1.60;;;;;;;27.04;38.26;101361.31;4961430;28;20462;-73
2023/07/07 08:57:07;;;;;;;2.25;1.27;;;;;;;27.12;39.33;101364.78;4963871;28;20216;-73
2023/07/07 08:59:52;;;;;;;1.40;1.20;;;;;;;27.26;38.74;101363.94;5082188;28;20555;-75
2023/07/07 09:02:39;;;;;;;2.10;1.20;;;;;;;27.37;36.65;101375.47;5058244;28;20725;-73
2023/07/07 09:05:14;;;;;;;0.85;0.82;;;;;;;27.43;33.46;101374.69;5059516;28;20200;-73
2023/07/07 09:07:57;;;;;;;1.63;1.10;;;;;;;27.46;32.55;101364.22;5060226;28;20196;-73
2023/07/07 09:10:39;;;;;;;1.30;1.20;;;;;;;27.55;32.31;101363.09;5059228;28;20224;-73
2023/07/07 09:13:13;;;;;;;3.08;1.25;;;;;;;27.67;32.50;101366.19;5059645;28;20252;-71
2023/07/07 09:15:46;;;;;;;3.80;1.40;;;;;;;27.81;32.73;101372.69;5065867;28;20625;-72
2023/07/07 09:18:20;;;;;;;1.52;1.20;;;;;;;27.88;32.14;101362.66;5062975;28;20461;-73
2023/07/07 09:20:56;;;;;;;2.25;1.33;;;;;;;27.91;32.71;101363.13;5066042;28;20622;-72
2023/07/07 09:23:26;;;;;;;2.47;1.50;;;;;;;28.06;32.40;101365.81;5062429;28;20200;-73
2023/07/07 09:25:59;;;;;;;2.15;1.20;;;;;;;28.18;32.31;101377.09;5061680;28;20211;-73
2023/07/07 09:28:28;;;;;;;3.33;1.60;;;;;;;28.28;32.06;101370.31;5063448;28;20685;-72
2023/07/07 09:30:59;;;;;;;2.10;1.20;;;;;;;28.46;31.65;101366.25;5059390;28;20225;-72
2023/07/07 09:33:27;;;;;;;1.33;1.08;;;;;;;28.62;32.19;101368.72;5060040;28;20585;-74
2023/07/07 09:36:02;;;;;;;2.45;1.17;;;;;;;28.74;31.54;101363.53;5056121;28;20209;-75
2023/07/07 09:38:43;;;;;;;2.63;1.25;;;;;;;28.75;31.68;101366.06;5062320;28;20225;-73
2023/07/07 09:41:21;;;;;;;1.90;1.05;;;;;;;28.76;31.22;101369.66;5063886;28;20594;-75
2023/07/07 09:44:06;;;;;;;1.33;1.02;;;;;;;28.80;31.03;101360.03;5059359;28;20205;-75
2023/07/07 09:46:41;;;;;;;1.65;1.20;;;;;;;28.81;30.44;101375.44;5064135;28;20209;-75
2023/07/07 09:49:19;;;;;;;1.83;1.20;;;;;;;28.83;30.69;101370.63;5055852;28;20200;-74
2023/07/07 09:51:51;;;;;;;3.25;1.10;;;;;;;28.89;30.88;101367.06;5061209;28;20232;-73
2023/07/07 09:54:19;;;;;;;2.28;1.10;;;;;;;28.84;30.72;101367.66;5065808;28;20200;-77
2023/07/07 09:56:52;;;;;;;3.00;1.45;;;;;;;28.85;31.14;101369.34;5055661;28;20207;-75
2023/07/07 09:59:23;;;;;;;2.13;1.08;;;;;;;28.93;30.87;101369.19;5057134;28;20225;-75
2023/07/07 10:01:54;;;;;;;1.40;1.27;;;;;;;28.98;30.93;101369.47;5063805;28;20251;-75
2023/07/07 10:04:24;;;;;;;1.90;1.45;;;;;;;29.08;30.50;101360.88;5056877;28;20209;-73
2023/07/07 10:06:55;;;;;;;1.65;1.20;;;;;;;29.18;30.38;101360.50;5062861;28;20253;-72
2023/07/07 10:09:22;;;;;;;1.00;0.90;;;;;;;29.24;30.10;101371.50;5054423;28;20428;-75
2023/07/07 10:11:51;;;;;;;1.75;1.30;;;;;;;29.28;29.71;101359.09;5046481;28;20225;-75
2023/07/07 10:14:18;;;;;;;2.55;1.30;;;;;;;29.34;29.66;101358.28;5048850;28;20205;-75
2023/07/07 10:16:56;;;;;;;3.20;1.38;;;;;;;29.43;29.73;101367.22;5054601;28;20216;-75
2023/07/07 10:19:24;;;;;;;1.45;1.08;;;;;;;29.50;30.09;101357.13;5049156;28;20229;-75
2023/07/07 10:21:51;;;;;;;1.88;1.45;;;;;;;29.64;29.87;101356.13;5043548;28;20971;-75
2023/07/07 10:24:17;;;;;;;1.77;1.30;;;;;;;29.67;29.99;101352.97;5044869;28;20212;-75
2023/07/07 10:26:47;;;;;;;2.65;1.30;;;;;;;29.67;30.34;101361.22;5051620;28;20463;-75
2023/07/07 10:29:17;;;;;;;3.22;1.20;;;;;;;29.74;31.21;101363.16;5046326;28;20205;-68
2023/07/07 10:31:46;;;;;;;1.85;1.10;;;;;;;29.84;30.89;101355.34;5044166;28;20653;-73
2023/07/07 10:34:23;;;;;;;3.03;1.50;;;;;;;29.80;29.69;101346.69;5040988;28;20197;-74
2023/07/07 10:36:53;;;;;;;2.60;1.23;;;;;;;29.78;30.09;101351.53;5042092;28;20587;-74
2023/07/07 10:39:22;;;;;;;3.08;1.20;;;;;;;29.79;30.01;101347.72;5040384;28;20225;-74
2023/07/07 10:41:49;;;;;;;1.20;1.08;;;;;;;29.85;30.40;101340.56;5036841;28;20748;-74
2023/07/07 10:44:16;;;;;;;1.80;1.15;;;;;;;29.91;30.02;101339.75;5041920;28;20293;-74
2023/07/07 10:46:42;;;;;;;1.92;1.38;;;;;;;29.92;29.12;101339.53;5039474;28;20201;-75
2023/07/07 10:49:14;;;;;;;2.08;1.05;;;;;;;30.02;30.31;101341.91;5046765;28;20792;-74
2023/07/07 10:51:51;;;;;;;1.30;1.20;;;;;;;30.14;29.62;101337.50;5042062;28;20228;-74
2023/07/07 10:54:37;;;;;;;1.80;1.30;;;;;;;30.20;29.44;101335.81;5043099;28;20252;-74
2023/07/07 10:57:16;;;;;;;1.65;1.30;;;;;;;30.22;28.54;101337.31;5044533;28;20209;-74
2023/07/07 10:59:56;;;;;;;2.25;1.30;;;;;;;30.17;27.71;101342.59;5052205;28;20225;-75
2023/07/07 11:02:40;;;;;;;2.38;1.30;;;;;;;30.19;28.22;101337.72;5042352;28;20244;-74
2023/07/07 11:05:26;;;;;;;2.78;1.10;;;;;;;30.26;27.64;101343.25;5046497;28;20205;-74
2023/07/07 11:08:01;;;;;;;1.90;1.10;;;;;;;30.31;27.47;101352.53;5042557;28;20209;-75
2023/07/07 11:10:47;;;;;;;1.58;1.15;;;;;;;30.35;28.05;101348.31;5041332;28;20209;-75
2023/07/07 11:13:24;;;;;;;2.90;1.13;;;;;;;30.44;27.90;101343.47;5044788;28;20668;-74
2023/07/07 11:15:59;;;;;;;1.70;1.30;;;;;;;30.55;28.31;101353.84;5041849;28;20213;-75
2023/07/07 11:18:49;;;;;;;2.20;1.30;;;;;;;30.58;27.99;101338.84;5045369;28;20716;-74
2023/07/07 11:21:27;;;;;;;1.65;1.20;;;;;;;30.62;28.33;101346.47;5038388;28;20226;-75
2023/07/07 11:24:11;;;;;;;1.13;1.02;;;;;;;30.58;27.96;101339.69;5038955;28;20213;-74
2023/07/07 11:26:49;;;;;;;1.23;1.13;;;;;;;30.58;27.60;101347.09;5043108;28;20301;-74
2023/07/07 11:29:25;;;;;;;2.65;1.48;;;;;;;30.60;28.03;101355.97;5040107;28;20213;-75
2023/07/07 11:32:05;;;;;;;1.80;1.38;;;;;;;30.64;27.81;101351.72;5039021;28;20221;-74
2023/07/07 11:34:46;;;;;;;1.35;1.20;;;;;;;30.68;27.22;101353.00;5040695;28;20692;-74
2023/07/07 11:37:25;;;;;;;1.58;1.02;;;;;;;30.68;27.35;101350.25;5040307;28;20205;-74